Data for 02/02/2014

Time Sea-Level Adjusted Pressure Absolute Pressure Temperature Relative Humidity Dew Point   
(mb) (inHg) (mb) (inHg) (C) (F) (%) (C) (F)
00:05 1016 30 845 24.95 -14.7 5.6 75 -18.1 -0.6
00:10 1016 30 845 24.95 -15 5.1 78 -18 -0.4
00:15 1016 30 845 24.95 -15.3 4.5 79 -18.1 -0.6
00:20 1016 30 845 24.95 -15.4 4.3 79 -18.3 -1
00:25 1016 30 845 24.95 -15.4 4.3 79 -18.3 -0.9
00:30 1016 30 845 24.95 -15.3 4.5 79 -18.2 -0.7
00:35 1016 30 845 24.95 -14.8 5.3 79 -17.8 0
00:40 1016 30 845 24.95 -14.3 6.2 74 -18 -0.3
00:45 1016 30 845 24.95 -14.8 5.5 77 -17.9 -0.2
00:50 1016 30 845 24.95 -14.9 5.1 79 -17.9 -0.1
00:55 1016 30 845 24.95 -14.6 5.8 77 -17.8 0
01:00 1016 30 845 24.95 -14.7 5.6 76 -18 -0.4
01:05 1016 30 845 24.95 -15.1 4.8 75 -18.6 -1.4
01:10 1016 30 845 24.95 -15.9 3.4 80 -18.7 -1.6
01:15 1016 30 845 24.95 -16 3.2 80 -18.8 -1.8
01:20 1016 30 845 24.95 -15.8 3.5 78 -18.8 -1.8
01:25 1016 30 845 24.95 -15.9 3.4 80 -18.7 -1.6
01:30 1016 30 845 24.95 -15.9 3.4 79 -18.8 -1.8
01:35 1016 30 845 24.95 -16 3.3 78 -18.9 -2.1
01:40 1016 30 845 24.95 -16 3.3 79 -18.8 -1.9
01:45 1016 30 845 24.95 -16 3.3 79 -18.8 -1.8
01:50 1016 30 845 24.95 -16 3.2 80 -18.7 -1.6
01:55 1016 30 845 24.95 -15.9 3.5 78 -18.9 -2
02:00 1016 30 845 24.95 -16.2 2.8 80 -18.9 -2.1
02:05 1016 30 845 24.95 -15.8 3.6 79 -18.7 -1.7
02:10 1016 30 845 24.95 -15.4 4.2 80 -18.2 -0.8
02:15 1016 30 845 24.95 -14.9 5.1 78 -17.9 -0.3
02:20 1016 30 845 24.95 -14.7 5.6 77 -18 -0.3
02:25 1016 30 845 24.95 -14.6 5.7 75 -18.2 -0.7
02:30 1016 30 845 24.95 -15 5 76 -18.3 -0.9
02:35 1016 30 845 24.95 -15.6 3.8 76 -18.9 -2
02:40 1016 30 845 24.95 -16.4 2.6 75 -19.8 -3.7
02:45 1016 30 845 24.95 -16.8 1.7 80 -19.5 -3.1
02:50 1016 30 845 24.95 -16.2 2.8 82 -18.7 -1.6
02:55 1016 30 845 24.95 -15.3 4.5 75 -18.7 -1.7
03:00 1016 30 845 24.95 -15.7 3.7 78 -18.8 -1.8
03:05 1016 30 845 24.95 -15.8 3.6 76 -19.1 -2.4
03:10 1016 30 845 24.95 -16 3.2 78 -18.9 -2.1
03:15 1016 30 845 24.95 -15.7 3.7 78 -18.6 -1.6
03:20 1016 30 845 24.95 -15.5 4.1 77 -18.7 -1.7
03:25 1016 30 845 24.95 -15.8 3.6 80 -18.5 -1.3
03:30 1016 30 845 24.95 -15.8 3.6 78 -18.8 -1.9
03:35 1016 30 845 24.95 -16.2 2.9 80 -18.9 -2
03:40 1016 30 845 24.95 -16 3.2 80 -18.8 -1.8
03:45 1016 30 845 24.95 -15.5 4.1 80 -18.2 -0.8
03:50 1016 30 845 24.95 -15.2 4.6 77 -18.5 -1.2
03:55 1016 30 845 24.95 -15.6 4 77 -18.8 -1.8
04:00 1016 30 845 24.95 -15.8 3.6 76 -19.1 -2.4
04:05 1016 30 845 24.95 -15.9 3.5 80 -18.6 -1.4
04:10 1016 30 845 24.95 -15.7 3.8 78 -18.7 -1.7
04:15 1016 30 846 24.98 -15.8 3.5 78 -18.8 -1.9
04:20 1016 30 846 24.98 -16 3.1 79 -18.8 -1.9
04:25 1016 30 846 24.98 -15.4 4.2 76 -18.8 -1.8
04:30 1016 30 846 24.98 -15.6 3.9 78 -18.6 -1.5
04:35 1016 30 845 24.95 -15 4.9 77 -18.3 -0.9
04:40 1016 30 845 24.95 -14.8 5.5 75 -18.2 -0.8
04:45 1016 30 845 24.95 -14.6 5.7 76 -18 -0.4
04:50 1016 30 845 24.95 -15.1 4.9 79 -17.9 -0.3
04:55 1016 30 845 24.95 -15.2 4.7 79 -18.1 -0.5
05:00 1016 30 845 24.95 -15.5 4 79 -18.4 -1.1
05:05 1016 30 845 24.95 -16.1 3 80 -18.9 -2
05:10 1016 30 845 24.95 -16.5 2.4 81 -19 -2.2
05:15 1016 30 845 24.95 -16.4 2.6 82 -18.8 -1.8
05:20 1016 30 845 24.95 -15.8 3.5 78 -18.8 -1.9
05:25 1016 30 845 24.95 -15.2 4.7 75 -18.7 -1.6
05:30 1016 30 845 24.95 -15.4 4.3 76 -18.7 -1.6
05:35 1016 30 845 24.95 -15.4 4.2 76 -18.7 -1.7
05:40 1016 30 845 24.95 -15.5 4.1 77 -18.6 -1.5
05:45 1016 30 846 24.98 -15.5 4.2 77 -18.7 -1.6
05:50 1016 30 846 24.98 -15.4 4.2 78 -18.5 -1.3
05:55 1016 30 846 24.98 -15.2 4.6 77 -18.3 -1
06:00 1016 30 846 24.98 -15.3 4.4 79 -18.2 -0.8
06:05 1016 30 846 24.98 -15.1 4.8 77 -18.4 -1
06:10 1016 30 846 24.98 -15.5 4.1 78 -18.6 -1.4
06:15 1016 30 846 24.98 -15.9 3.4 79 -18.7 -1.6
06:20 1016 30 846 24.98 -15.7 3.8 79 -18.5 -1.3
06:25 1016 30 846 24.98 -15.3 4.4 79 -18.2 -0.8
06:30 1016 30 846 24.98 -14.9 5.1 78 -18 -0.4
06:35 1016 30 845 24.95 -14.6 5.8 76 -17.9 -0.2
06:40 1016 30 845 24.95 -14.4 6.1 75 -17.8 -0.1
06:45 1016 30 845 24.95 -14.8 5.3 78 -17.9 -0.1
06:50 1016 30 845 24.95 -15.2 4.6 81 -17.8 -0
06:55 1016 30 845 24.95 -14.7 5.6 78 -17.8 -0
07:00 1016 30 845 24.95 -14.7 5.6 78 -17.8 0
07:05 1016 30 845 24.95 -14.7 5.6 77 -17.8 -0.1
07:10 1016 30 845 24.95 -14.8 5.4 77 -18 -0.4
07:15 1016 30 845 24.95 -14.9 5.3 78 -17.9 -0.3
07:20 1016 30 845 24.95 -15.1 4.8 78 -18.2 -0.7
07:25 1016 30 845 24.95 -15.2 4.7 77 -18.3 -1
07:30 1016 30 845 24.95 -15.2 4.7 78 -18.2 -0.7
07:35 1016 30 845 24.95 -15.1 4.9 78 -18.1 -0.7
07:40 1016 30 845 24.95 -15 5 77 -18.1 -0.6
07:45 1016 30 845 24.95 -15.1 4.8 79 -18 -0.4
07:50 1016 30 845 24.95 -15 5 78 -18.1 -0.6
07:55 1016 30 845 24.95 -15.1 4.8 78 -18.1 -0.6
08:00 1016 30 845 24.95 -15.2 4.7 78 -18.2 -0.8
08:05 1016 30 845 24.95 -15.3 4.5 78 -18.3 -1
08:10 1016 30 845 24.95 -15.2 4.6 77 -18.4 -1.1
08:15 1016 30 845 24.95 -15.2 4.6 79 -18.2 -0.7
08:20 1016 30 845 24.95 -14.7 5.5 78 -17.8 -0
08:25 1016 30 845 24.95 -14.5 5.8 78 -17.6 0.3
08:30 1016 30 845 24.95 -13.8 7.2 75 -17.3 0.8
08:35 1016 30 845 24.95 -13.7 7.3 74 -17.4 0.7
08:40 1016 30 845 24.95 -14.4 6.2 77 -17.6 0.3
08:45 1016 30 845 24.95 -14.5 6 75 -17.9 -0.3
08:50 1016 30 845 24.95 -14.2 6.5 75 -17.7 0.1
08:55 1016 30 845 24.95 -14.5 5.9 76 -17.9 -0.1
09:00 1016 30 845 24.95 -14.7 5.6 78 -17.7 0.1
09:05 1016 30 845 24.95 -14.5 5.8 76 -17.9 -0.2
09:10 1016 30 845 24.95 -14.7 5.5 77 -18 -0.4
09:15 1016 30 845 24.95 -14.7 5.5 76 -18.1 -0.6
09:20 1016 30 845 24.95 -14.7 5.6 76 -18.1 -0.5
09:25 1016 30 845 24.95 -14.6 5.8 76 -17.9 -0.2
09:30 1016 30 845 24.95 -14.1 6.7 75 -17.6 0.3
09:35 1016 30 845 24.95 -13.5 7.7 74 -17.3 0.9
09:40 1016 30 845 24.95 -13.3 8.1 73 -17.2 1.1
09:45 1016 30 845 24.95 -13.1 8.5 72 -17.1 1.2
09:50 1016 30 845 24.95 -12.9 8.8 72 -16.9 1.7
09:55 1016 30 845 24.95 -12.7 9.2 72 -16.7 1.9
10:00 1016 30 845 24.95 -12.4 9.6 70 -16.8 1.7
10:05 1016 30 845 24.95 -12.4 9.8 71 -16.6 2.1
10:10 1016 30 845 24.95 -11.9 10.6 69 -16.5 2.4
10:15 1016 30 845 24.95 -11.7 11 69 -16.2 2.8
10:20 1016 30 845 24.95 -11.6 11.2 68 -16.3 2.7
10:25 1016 30 845 24.95 -11 12.1 67 -16 3.3
10:30 1016 30 845 24.95 -10.4 13.3 65 -15.8 3.6
10:35 1016 30 845 24.95 -9.5 14.9 62 -15.5 4.1
10:40 1016 30 845 24.95 -9.2 15.5 61 -15.3 4.4
10:45 1016 30 845 24.95 -8.9 16 60 -15.4 4.2
10:50 1016 30 845 24.95 -8.6 16.6 60 -15.1 4.8
10:55 1016 30 845 24.95 -8.4 16.9 58 -15.3 4.5
11:00 1016 30 845 24.95 -9 15.9 61 -15.1 4.9
11:05 1016 30 845 24.95 -9 15.9 60 -15.3 4.4
11:10 1016 30 845 24.95 -8.1 17.5 58 -14.9 5.2
11:15 1016 30 845 24.95 -8.1 17.5 59 -14.8 5.4
11:20 1016 30 845 24.95 -8 17.5 58 -15 5
11:25 1016 30 845 24.95 -7.4 18.7 56 -14.8 5.4
11:30 1016 30 845 24.95 -6.5 20.4 53 -14.7 5.6
11:35 1016 30 845 24.95 -6.2 20.8 55 -13.9 6.9
11:40 1016 30 845 24.95 -7.5 18.5 58 -14.4 6.1
11:45 1016 30 845 24.95 -7.2 19 56 -14.6 5.8
11:50 1016 30 845 24.95 -6.5 20.3 55 -14.2 6.5
11:55 1016 30 845 24.95 -6.6 20.1 56 -14 6.8
12:00 1016 30 845 24.95 -6.6 20.1 54 -14.4 6.1
12:05 1016 30 845 24.95 -6.4 20.5 55 -14.1 6.6
12:10 1016 30 845 24.95 -6.2 20.9 54 -14 6.7
12:15 1016 30 845 24.95 -6.2 20.9 53 -14.2 6.5
12:20 1016 30 845 24.95 -6.1 21 54 -14 6.8
12:25 1016 30 845 24.95 -5.8 21.6 52 -14.2 6.5
12:30 1016 30 845 24.95 -6.1 21.1 54 -13.8 7.1
12:35 1016 30 845 24.95 -6.3 20.6 54 -14.2 6.4
12:40 1016 30 845 24.95 -5.9 21.3 54 -13.7 7.3
12:45 1015 29.97 845 24.95 -5.3 22.5 51 -14 6.8
12:50 1015 29.97 844 24.92 -5.1 22.8 52 -13.6 7.5
12:55 1015 29.97 844 24.92 -5 23.1 51 -13.5 7.6
13:00 1015 29.97 844 24.92 -5.3 22.5 52 -13.6 7.6
13:05 1015 29.97 844 24.92 -5.1 22.8 52 -13.6 7.6
13:10 1015 29.97 844 24.92 -4.6 23.8 49 -13.7 7.4
13:15 1015 29.97 844 24.92 -3.9 25 47 -13.6 7.4
13:20 1015 29.97 844 24.92 -4 24.7 50 -13.1 8.4
13:25 1015 29.97 844 24.92 -4.1 24.7 48 -13.5 7.6
13:30 1015 29.97 844 24.92 -4.3 24.3 47 -13.8 7.1
13:35 1015 29.97 844 24.92 -3.9 24.9 48 -13.3 8
13:40 1015 29.97 844 24.92 -4.1 24.7 50 -13.1 8.5
13:45 1015 29.97 844 24.92 -4.2 24.4 49 -13.5 7.6
13:50 1015 29.97 844 24.92 -4.3 24.3 50 -13.3 8.1
13:55 1015 29.97 844 24.92 -5.1 22.9 50 -14 6.7
14:00 1015 29.97 844 24.92 -4.6 23.7 49 -13.7 7.4
14:05 1014 29.94 844 24.92 -4 24.8 47 -13.7 7.3
14:10 1014 29.94 844 24.92 -3.7 25.3 47 -13.5 7.6
14:15 1014 29.94 844 24.92 -4.4 24.2 50 -13.2 8.2
14:20 1014 29.94 843 24.89 -5.3 22.5 53 -13.4 7.8
14:25 1014 29.94 843 24.89 -5.8 21.6 53 -13.8 7.1
14:30 1014 29.94 843 24.89 -4.9 23.2 51 -13.5 7.7
14:35 1014 29.94 843 24.89 -5.5 22.2 54 -13.5 7.7
14:40 1014 29.94 843 24.89 -5.5 22.1 52 -14 6.9
14:45 1014 29.94 843 24.89 -5.2 22.6 52 -13.6 7.6
14:50 1014 29.94 843 24.89 -6.1 21.1 54 -14 6.8
14:55 1014 29.94 843 24.89 -6.4 20.4 53 -14.5 5.9
15:00 1014 29.94 843 24.89 -6.3 20.6 53 -14.5 5.9
15:05 1014 29.94 843 24.89 -6.4 20.5 52 -14.7 5.6
15:10 1014 29.94 843 24.89 -6 21.3 52 -14.3 6.3
15:15 1014 29.94 843 24.89 -5.7 21.8 52 -14 6.8
15:20 1014 29.94 843 24.89 -4.9 23.1 48 -14.3 6.2
15:25 1013 29.91 843 24.89 -4.3 24.2 48 -13.8 7.2
15:30 1013 29.91 843 24.89 -4.2 24.4 48 -13.7 7.4
15:35 1013 29.91 843 24.89 -4 24.8 48 -13.5 7.7
15:40 1013 29.91 843 24.89 -4.1 24.6 46 -14 6.7
15:45 1013 29.91 843 24.89 -3.8 25.2 47 -13.5 7.7
15:50 1013 29.91 843 24.89 -3.8 25.1 47 -13.6 7.5
15:55 1013 29.91 843 24.89 -4.5 23.9 50 -13.5 7.8
16:00 1013 29.91 843 24.89 -4.7 23.6 49 -13.9 7
16:05 1013 29.91 842 24.86 -4.7 23.6 49 -13.8 7.2
16:10 1013 29.91 842 24.86 -4.4 24.1 48 -13.9 6.9
16:15 1013 29.91 842 24.86 -4.4 24.2 48 -13.7 7.4
16:20 1013 29.91 842 24.86 -4.4 24 48 -13.9 7
16:25 1013 29.91 842 24.86 -4.5 23.9 49 -13.8 7.1
16:30 1013 29.91 843 24.89 -4.5 23.8 50 -13.5 7.7
16:35 1013 29.91 842 24.86 -4.8 23.3 49 -14 6.9
16:40 1013 29.91 842 24.86 -4.8 23.3 50 -13.8 7.2
16:45 1013 29.91 842 24.86 -5 23.1 50 -13.9 6.9
16:50 1013 29.91 842 24.86 -5.3 22.5 52 -13.6 7.5
16:55 1013 29.91 842 24.86 -5.6 22 53 -13.6 7.5
17:00 1013 29.91 842 24.86 -5.8 21.6 55 -13.5 7.7
17:05 1013 29.91 842 24.86 -6 21.1 56 -13.4 7.9
17:10 1013 29.91 842 24.86 -6.1 21 57 -13.3 8.1
17:15 1013 29.91 842 24.86 -6.2 20.8 57 -13.4 7.9
17:20 1013 29.91 842 24.86 -6.3 20.6 55 -14 6.8
17:25 1013 29.91 842 24.86 -6.4 20.4 56 -13.9 6.9
17:30 1013 29.91 842 24.86 -6.6 20.2 57 -13.8 7.2
17:35 1013 29.91 842 24.86 -6.5 20.3 55 -14 6.8
17:40 1013 29.91 842 24.86 -6.5 20.4 55 -14.1 6.7
17:45 1013 29.91 842 24.86 -6.4 20.5 56 -13.8 7.1
17:50 1013 29.91 842 24.86 -6.4 20.4 56 -13.9 7
17:55 1013 29.91 842 24.86 -6.5 20.3 56 -13.9 7
18:00 1013 29.91 842 24.86 -6.5 20.3 56 -13.9 6.9
18:05 1013 29.91 842 24.86 -6.5 20.3 57 -13.7 7.3
18:10 1013 29.91 842 24.86 -6.4 20.4 57 -13.6 7.6
18:15 1013 29.91 842 24.86 -6.4 20.5 58 -13.3 8.1
18:20 1013 29.91 842 24.86 -6.6 20.2 58 -13.4 7.8
18:25 1013 29.91 842 24.86 -6.6 20.1 59 -13.2 8.2
18:30 1013 29.91 842 24.86 -6.7 20 63 -12.7 9.1
18:35 1013 29.91 842 24.86 -6.7 19.9 62 -12.9 8.7
18:40 1013 29.91 842 24.86 -6.9 19.7 64 -12.6 9.2
18:45 1013 29.91 842 24.86 -7.1 19.3 66 -12.4 9.8
18:50 1013 29.91 842 24.86 -7.2 19 65 -12.8 8.9
18:55 1013 29.91 842 24.86 -7.4 18.8 64 -13.1 8.4
19:00 1013 29.91 842 24.86 -7.4 18.7 63 -13.2 8.3
19:05 1013 29.91 842 24.86 -7.3 18.9 64 -12.9 8.7
19:10 1013 29.91 842 24.86 -7.3 18.9 62 -13.4 7.8
19:15 1013 29.91 842 24.86 -7.3 18.9 65 -12.9 8.9
19:20 1013 29.91 842 24.86 -7.4 18.7 65 -12.9 8.9
19:25 1013 29.91 842 24.86 -7.5 18.4 67 -12.7 9.2
19:30 1013 29.91 842 24.86 -7.7 18.2 66 -13 8.5
19:35 1013 29.91 842 24.86 -7.4 18.7 64 -13.1 8.4
19:40 1013 29.91 842 24.86 -7.4 18.7 65 -12.8 9
19:45 1013 29.91 842 24.86 -7.5 18.5 66 -12.8 9
19:50 1013 29.91 842 24.86 -7.6 18.3 66 -12.9 8.8
19:55 1013 29.91 842 24.86 -7.7 18.2 66 -12.9 8.8
20:00 1013 29.91 842 24.86 -7.7 18.2 67 -12.8 8.9
20:05 1013 29.91 842 24.86 -7.8 18.1 65 -13.2 8.3
20:10 1013 29.91 842 24.86 -7.9 17.9 67 -12.9 8.7
20:15 1013 29.91 842 24.86 -7.9 17.7 67 -13 8.6
20:20 1013 29.91 842 24.86 -8 17.7 67 -13.1 8.5
20:25 1013 29.91 842 24.86 -8.1 17.5 68 -12.9 8.7
20:30 1013 29.91 842 24.86 -8.2 17.2 71 -12.6 9.3
20:35 1013 29.91 842 24.86 -8.4 16.9 71 -12.8 9
20:40 1013 29.91 842 24.86 -8.3 17 71 -12.7 9.1
20:45 1013 29.91 842 24.86 -8.2 17.2 69 -12.9 8.8
20:50 1013 29.91 842 24.86 -8.2 17.3 71 -12.6 9.4
20:55 1013 29.91 842 24.86 -8.3 17.1 72 -12.5 9.4
21:00 1013 29.91 842 24.86 -8.2 17.3 71 -12.5 9.4
21:05 1013 29.91 842 24.86 -8.1 17.4 72 -12.4 9.7
21:10 1013 29.91 842 24.86 -8.2 17.3 72 -12.3 9.9
21:15 1013 29.91 842 24.86 -8.2 17.3 72 -12.4 9.7
21:20 1013 29.91 842 24.86 -8.1 17.4 72 -12.4 9.7
21:25 1013 29.91 842 24.86 -8.1 17.5 72 -12.3 9.9
21:30 1013 29.91 842 24.86 -8 17.5 72 -12.2 10.1
21:35 1012 29.88 842 24.86 -7.9 17.7 73 -12.1 10.3
21:40 1012 29.88 842 24.86 -8 17.7 73 -11.9 10.6
21:45 1012 29.88 842 24.86 -8 17.6 73 -12 10.4
21:50 1012 29.88 842 24.86 -8 17.7 73 -12.1 10.3
21:55 1012 29.88 842 24.86 -7.8 17.9 73 -11.8 10.8
22:00 1012 29.88 842 24.86 -7.8 18 74 -11.6 11.1
22:05 1012 29.88 842 24.86 -7.7 18.1 75 -11.5 11.3
22:10 1012 29.88 842 24.86 -7.7 18.1 74 -11.5 11.3
22:15 1012 29.88 842 24.86 -7.6 18.3 74 -11.5 11.3
22:20 1012 29.88 842 24.86 -7.6 18.3 75 -11.4 11.5
22:25 1012 29.88 842 24.86 -7.6 18.3 75 -11.4 11.6
22:30 1012 29.88 842 24.86 -7.6 18.3 75 -11.4 11.5
22:35 1012 29.88 842 24.86 -7.6 18.3 74 -11.5 11.3
22:40 1012 29.88 842 24.86 -7.6 18.4 74 -11.4 11.4
22:45 1012 29.88 842 24.86 -7.5 18.5 75 -11.3 11.7
22:50 1012 29.88 842 24.86 -7.6 18.3 75 -11.3 11.6
22:55 1012 29.88 842 24.86 -7.7 18.2 74 -11.5 11.3
23:00 1012 29.88 842 24.86 -7.6 18.2 75 -11.3 11.7
23:05 1012 29.88 842 24.86 -7.8 18 76 -11.4 11.6
23:10 1012 29.88 842 24.86 -7.8 17.9 75 -11.5 11.4
23:15 1012 29.88 841 24.83 -7.8 18 75 -11.5 11.3
23:20 1012 29.88 841 24.83 -7.7 18.1 74 -11.5 11.3
23:25 1012 29.88 841 24.83 -7.7 18.2 75 -11.4 11.5
23:30 1012 29.88 841 24.83 -7.7 18.2 75 -11.4 11.6
23:35 1012 29.88 841 24.83 -7.7 18.1 75 -11.4 11.5
23:40 1012 29.88 841 24.83 -7.7 18.2 76 -11.2 11.8
23:45 1012 29.88 841 24.83 -7.7 18.2 76 -11.1 12
23:50 1012 29.88 841 24.83 -7.7 18.1 76 -11.2 11.9
23:55 1012 29.88 841 24.83 -7.7 18.2 77 -11.1 12.1
24:00 1012 29.88 841 24.83 -7.8 18.1 77 -11.1 12